sensor_id;sensor_type;location;lat;lon;timestamp;pressure;altitude;pressure_sealevel;temperature;humidity
6343;BME280;3204;42.698;23.298;2022-07-22T00:02:16;95034.13;;;23.84;53.56
6343;BME280;3204;42.698;23.298;2022-07-22T00:04:41;95027.78;;;23.84;53.72
6343;BME280;3204;42.698;23.298;2022-07-22T00:07:07;95034.88;;;23.74;54.14
6343;BME280;3204;42.698;23.298;2022-07-22T00:09:32;95037.25;;;23.72;54.00
6343;BME280;3204;42.698;23.298;2022-07-22T00:11:59;95034.03;;;23.63;54.73
6343;BME280;3204;42.698;23.298;2022-07-22T00:14:24;95034.84;;;23.60;54.81
6343;BME280;3204;42.698;23.298;2022-07-22T00:16:50;95034.41;;;23.58;54.84
6343;BME280;3204;42.698;23.298;2022-07-22T00:19:15;95035.59;;;23.50;55.18
6343;BME280;3204;42.698;23.298;2022-07-22T00:21:41;95031.19;;;23.49;55.47
6343;BME280;3204;42.698;23.298;2022-07-22T00:24:09;95034.41;;;23.55;55.17
6343;BME280;3204;42.698;23.298;2022-07-22T00:26:35;95035.59;;;23.50;55.02
6343;BME280;3204;42.698;23.298;2022-07-22T00:29:00;95037.47;;;23.39;55.20
6343;BME280;3204;42.698;23.298;2022-07-22T00:31:26;95040.25;;;23.36;55.46
6343;BME280;3204;42.698;23.298;2022-07-22T00:33:51;95045.75;;;23.32;55.51
6343;BME280;3204;42.698;23.298;2022-07-22T00:36:17;95038.66;;;23.31;55.70
6343;BME280;3204;42.698;23.298;2022-07-22T00:38:43;95049.72;;;23.31;55.45
6343;BME280;3204;42.698;23.298;2022-07-22T00:41:08;95042.47;;;23.16;55.70
6343;BME280;3204;42.698;23.298;2022-07-22T00:44:09;95044.03;;;23.14;55.78
6343;BME280;3204;42.698;23.298;2022-07-22T00:46:36;95051.91;;;23.08;55.84
6343;BME280;3204;42.698;23.298;2022-07-22T00:49:04;95045.91;;;22.99;55.79
6343;BME280;3204;42.698;23.298;2022-07-22T00:51:30;95045.94;;;23.03;55.77
6343;BME280;3204;42.698;23.298;2022-07-22T00:53:56;95043.97;;;23.03;55.37
6343;BME280;3204;42.698;23.298;2022-07-22T00:56:23;95049.13;;;23.05;55.35
6343;BME280;3204;42.698;23.298;2022-07-22T00:58:50;95043.53;;;23.01;55.82
6343;BME280;3204;42.698;23.298;2022-07-22T01:01:16;95042.38;;;23.02;55.67
6343;BME280;3204;42.698;23.298;2022-07-22T01:03:42;95038.00;;;23.01;55.23
6343;BME280;3204;42.698;23.298;2022-07-22T01:06:08;95044.72;;;22.97;55.70
6343;BME280;3204;42.698;23.298;2022-07-22T01:08:34;95041.53;;;22.95;55.80
6343;BME280;3204;42.698;23.298;2022-07-22T01:11:11;95043.13;;;22.96;56.04
6343;BME280;3204;42.698;23.298;2022-07-22T01:13:36;95043.09;;;22.92;56.33
6343;BME280;3204;42.698;23.298;2022-07-22T01:16:03;95039.84;;;22.83;56.47
6343;BME280;3204;42.698;23.298;2022-07-22T01:18:29;95035.09;;;22.80;55.98
6343;BME280;3204;42.698;23.298;2022-07-22T01:20:55;95041.41;;;22.77;56.28
6343;BME280;3204;42.698;23.298;2022-07-22T01:23:21;95037.03;;;22.73;56.35
6343;BME280;3204;42.698;23.298;2022-07-22T01:25:46;95038.97;;;22.69;56.98
6343;BME280;3204;42.698;23.298;2022-07-22T01:28:12;95043.28;;;22.66;56.77
6343;BME280;3204;42.698;23.298;2022-07-22T01:30:37;95025.41;;;22.53;56.89
6343;BME280;3204;42.698;23.298;2022-07-22T01:33:03;95047.19;;;22.62;56.91
6343;BME280;3204;42.698;23.298;2022-07-22T01:35:28;95038.50;;;22.63;56.34
6343;BME280;3204;42.698;23.298;2022-07-22T01:37:54;95044.41;;;22.58;56.98
6343;BME280;3204;42.698;23.298;2022-07-22T01:40:19;95034.16;;;22.62;57.13
6343;BME280;3204;42.698;23.298;2022-07-22T01:42:45;95036.53;;;22.60;57.19
6343;BME280;3204;42.698;23.298;2022-07-22T01:45:10;95037.69;;;22.59;57.32
6343;BME280;3204;42.698;23.298;2022-07-22T01:47:36;95040.84;;;22.58;57.27
6343;BME280;3204;42.698;23.298;2022-07-22T01:50:03;95028.59;;;22.55;57.47
6343;BME280;3204;42.698;23.298;2022-07-22T01:52:28;95039.66;;;22.55;57.54
6343;BME280;3204;42.698;23.298;2022-07-22T01:54:54;95037.19;;;22.47;57.91
6343;BME280;3204;42.698;23.298;2022-07-22T01:57:19;95035.09;;;22.37;58.10
6343;BME280;3204;42.698;23.298;2022-07-22T01:59:45;95037.84;;;22.33;57.97
6343;BME280;3204;42.698;23.298;2022-07-22T02:02:10;95052.00;;;22.28;58.35
6343;BME280;3204;42.698;23.298;2022-07-22T02:04:36;95053.13;;;22.24;58.59
6343;BME280;3204;42.698;23.298;2022-07-22T02:07:01;95051.22;;;22.31;58.50
6343;BME280;3204;42.698;23.298;2022-07-22T02:09:27;95050.84;;;22.33;58.85
6343;BME280;3204;42.698;23.298;2022-07-22T02:11:52;95058.75;;;22.31;58.63
6343;BME280;3204;42.698;23.298;2022-07-22T02:14:18;95058.28;;;22.25;58.70
6343;BME280;3204;42.698;23.298;2022-07-22T02:16:43;95057.03;;;22.19;59.09
6343;BME280;3204;42.698;23.298;2022-07-22T02:19:09;95064.00;;;22.06;59.74
6343;BME280;3204;42.698;23.298;2022-07-22T02:21:35;95057.94;;;21.94;60.06
6343;BME280;3204;42.698;23.298;2022-07-22T02:24:00;95062.72;;;21.97;59.99
6343;BME280;3204;42.698;23.298;2022-07-22T02:26:26;95061.91;;;21.96;60.04
6343;BME280;3204;42.698;23.298;2022-07-22T02:28:52;95067.75;;;21.88;60.32
6343;BME280;3204;42.698;23.298;2022-07-22T02:31:17;95067.28;;;21.82;60.31
6343;BME280;3204;42.698;23.298;2022-07-22T02:33:45;95066.88;;;21.80;60.31
6343;BME280;3204;42.698;23.298;2022-07-22T02:36:11;95057.41;;;21.81;59.87
6343;BME280;3204;42.698;23.298;2022-07-22T02:38:36;95060.06;;;21.74;60.12
6343;BME280;3204;42.698;23.298;2022-07-22T02:41:02;95055.91;;;21.58;60.53
6343;BME280;3204;42.698;23.298;2022-07-22T02:43:28;95057.53;;;21.62;60.50
6343;BME280;3204;42.698;23.298;2022-07-22T02:45:53;95060.59;;;21.54;60.84
6343;BME280;3204;42.698;23.298;2022-07-22T02:48:19;95058.16;;;21.49;60.67
6343;BME280;3204;42.698;23.298;2022-07-22T02:50:48;95046.66;;;21.43;61.01
6343;BME280;3204;42.698;23.298;2022-07-22T02:53:14;95059.66;;;21.43;61.23
6343;BME280;3204;42.698;23.298;2022-07-22T02:55:40;95053.72;;;21.41;61.21
6343;BME280;3204;42.698;23.298;2022-07-22T02:58:06;95050.97;;;21.41;61.60
6343;BME280;3204;42.698;23.298;2022-07-22T03:00:33;95057.66;;;21.40;61.51
6343;BME280;3204;42.698;23.298;2022-07-22T03:02:58;95064.81;;;21.44;61.49
6343;BME280;3204;42.698;23.298;2022-07-22T03:05:24;95058.16;;;21.49;61.36
6343;BME280;3204;42.698;23.298;2022-07-22T03:07:49;95060.97;;;21.52;61.34
6343;BME280;3204;42.698;23.298;2022-07-22T03:10:15;95060.53;;;21.50;61.38
6343;BME280;3204;42.698;23.298;2022-07-22T03:12:40;95051.38;;;21.43;61.51
6343;BME280;3204;42.698;23.298;2022-07-22T03:15:06;95062.69;;;21.34;62.16
6343;BME280;3204;42.698;23.298;2022-07-22T03:17:36;95060.31;;;21.33;62.16
6343;BME280;3204;42.698;23.298;2022-07-22T03:20:06;95062.69;;;21.34;62.46
6343;BME280;3204;42.698;23.298;2022-07-22T03:22:32;95056.84;;;21.39;62.25
6343;BME280;3204;42.698;23.298;2022-07-22T03:24:58;95061.97;;;21.37;62.27
6343;BME280;3204;42.698;23.298;2022-07-22T03:27:23;95060.31;;;21.33;62.38
6343;BME280;3204;42.698;23.298;2022-07-22T03:29:49;95053.19;;;21.32;62.38
6343;BME280;3204;42.698;23.298;2022-07-22T03:32:14;95061.97;;;21.37;62.36
6343;BME280;3204;42.698;23.298;2022-07-22T03:34:40;95063.44;;;21.31;62.54
6343;BME280;3204;42.698;23.298;2022-07-22T03:37:05;95066.63;;;21.33;62.43
6343;BME280;3204;42.698;23.298;2022-07-22T03:39:31;95060.22;;;21.26;62.55
6343;BME280;3204;42.698;23.298;2022-07-22T03:41:56;95066.84;;;21.21;63.12
6343;BME280;3204;42.698;23.298;2022-07-22T03:44:22;95076.25;;;21.17;62.98
6343;BME280;3204;42.698;23.298;2022-07-22T03:46:47;95079.41;;;21.19;63.01
6343;BME280;3204;42.698;23.298;2022-07-22T03:49:13;95075.41;;;21.13;63.04
6343;BME280;3204;42.698;23.298;2022-07-22T03:51:39;95078.84;;;21.06;63.35
6343;BME280;3204;42.698;23.298;2022-07-22T03:54:04;95079.56;;;21.03;63.33
6343;BME280;3204;42.698;23.298;2022-07-22T03:56:31;95076.63;;;21.15;62.83
6343;BME280;3204;42.698;23.298;2022-07-22T03:58:56;95088.47;;;21.16;62.39
6343;BME280;3204;42.698;23.298;2022-07-22T04:01:21;95091.59;;;21.14;62.31
6343;BME280;3204;42.698;23.298;2022-07-22T04:03:47;95087.34;;;21.20;61.90
6343;BME280;3204;42.698;23.298;2022-07-22T04:06:14;95091.25;;;21.19;62.07
6343;BME280;3204;42.698;23.298;2022-07-22T04:08:39;95095.19;;;21.18;61.72
6343;BME280;3204;42.698;23.298;2022-07-22T04:11:05;95102.38;;;21.26;61.37
6343;BME280;3204;42.698;23.298;2022-07-22T04:13:30;95096.53;;;21.31;61.61
6343;BME280;3204;42.698;23.298;2022-07-22T04:15:56;95093.47;;;21.36;60.92
6343;BME280;3204;42.698;23.298;2022-07-22T04:18:21;95090.44;;;21.45;60.69
6343;BME280;3204;42.698;23.298;2022-07-22T04:20:47;95101.06;;;21.43;60.87
6343;BME280;3204;42.698;23.298;2022-07-22T04:23:13;95094.50;;;21.54;60.50
6343;BME280;3204;42.698;23.298;2022-07-22T04:25:38;95087.00;;;21.51;60.49
6343;BME280;3204;42.698;23.298;2022-07-22T04:28:04;95093.34;;;21.55;60.57
6343;BME280;3204;42.698;23.298;2022-07-22T04:30:30;95097.31;;;21.58;60.69
6343;BME280;3204;42.698;23.298;2022-07-22T04:32:55;95100.28;;;21.72;59.97
6343;BME280;3204;42.698;23.298;2022-07-22T04:35:21;95098.97;;;21.62;59.71
6343;BME280;3204;42.698;23.298;2022-07-22T04:37:46;95104.13;;;21.64;59.63
6343;BME280;3204;42.698;23.298;2022-07-22T04:40:12;95106.06;;;21.63;59.84
6343;BME280;3204;42.698;23.298;2022-07-22T04:42:37;95107.34;;;21.69;59.56
6343;BME280;3204;42.698;23.298;2022-07-22T04:45:03;95113.69;;;21.70;59.85
6343;BME280;3204;42.698;23.298;2022-07-22T04:47:29;95111.41;;;21.75;59.92
6343;BME280;3204;42.698;23.298;2022-07-22T04:49:54;95113.06;;;21.83;60.08
6343;BME280;3204;42.698;23.298;2022-07-22T04:52:20;95113.94;;;21.91;59.75
6343;BME280;3204;42.698;23.298;2022-07-22T04:54:45;95120.78;;;22.00;59.85
6343;BME280;3204;42.698;23.298;2022-07-22T04:57:11;95121.69;;;22.11;59.10
6343;BME280;3204;42.698;23.298;2022-07-22T04:59:37;95117.91;;;22.26;58.36
6343;BME280;3204;42.698;23.298;2022-07-22T05:02:02;95107.31;;;22.32;57.97
6343;BME280;3204;42.698;23.298;2022-07-22T05:04:28;95114.88;;;22.38;58.09
6343;BME280;3204;42.698;23.298;2022-07-22T05:06:54;95127.31;;;22.51;57.56
6343;BME280;3204;42.698;23.298;2022-07-22T05:09:19;95122.28;;;22.64;57.20
6343;BME280;3204;42.698;23.298;2022-07-22T05:11:45;95123.50;;;22.66;57.06
6343;BME280;3204;42.698;23.298;2022-07-22T05:14:10;95123.56;;;22.73;57.31
6343;BME280;3204;42.698;23.298;2022-07-22T05:16:36;95120.50;;;22.82;57.13
6343;BME280;3204;42.698;23.298;2022-07-22T05:19:03;95117.38;;;22.90;56.74
6343;BME280;3204;42.698;23.298;2022-07-22T05:21:29;95124.66;;;23.09;56.38
6343;BME280;3204;42.698;23.298;2022-07-22T05:23:55;95120.31;;;23.11;56.42
6343;BME280;3204;42.698;23.298;2022-07-22T05:26:20;95121.25;;;23.22;56.03
6343;BME280;3204;42.698;23.298;2022-07-22T05:28:46;95124.41;;;23.24;55.77
6343;BME280;3204;42.698;23.298;2022-07-22T05:31:11;95122.53;;;23.39;55.34
6343;BME280;3204;42.698;23.298;2022-07-22T05:33:37;95131.31;;;23.51;54.51
6343;BME280;3204;42.698;23.298;2022-07-22T05:36:02;95127.38;;;23.52;54.30
6343;BME280;3204;42.698;23.298;2022-07-22T05:38:28;95128.94;;;23.53;54.23
6343;BME280;3204;42.698;23.298;2022-07-22T05:40:53;95132.94;;;23.56;54.29
6343;BME280;3204;42.698;23.298;2022-07-22T05:43:19;95127.44;;;23.63;54.32
6343;BME280;3204;42.698;23.298;2022-07-22T05:45:44;95127.09;;;23.75;53.80
6343;BME280;3204;42.698;23.298;2022-07-22T05:48:10;95133.09;;;23.87;53.99
6343;BME280;3204;42.698;23.298;2022-07-22T05:50:35;95125.25;;;23.96;53.94
6343;BME280;3204;42.698;23.298;2022-07-22T05:53:02;95131.66;;;24.11;53.29
6343;BME280;3204;42.698;23.298;2022-07-22T05:55:27;95128.50;;;24.16;53.17
6343;BME280;3204;42.698;23.298;2022-07-22T05:57:52;95126.59;;;24.37;52.15
6343;BME280;3204;42.698;23.298;2022-07-22T06:00:18;95129.38;;;24.44;52.07
6343;BME280;3204;42.698;23.298;2022-07-22T06:02:44;95122.28;;;24.50;52.51
6343;BME280;3204;42.698;23.298;2022-07-22T06:05:09;95136.16;;;24.54;52.48
6343;BME280;3204;42.698;23.298;2022-07-22T06:07:35;95126.25;;;24.53;52.71
6343;BME280;3204;42.698;23.298;2022-07-22T06:10:01;95122.34;;;24.64;52.32
6343;BME280;3204;42.698;23.298;2022-07-22T06:12:26;95124.72;;;24.80;51.99
6343;BME280;3204;42.698;23.298;2022-07-22T06:14:51;95128.72;;;24.93;51.85
6343;BME280;3204;42.698;23.298;2022-07-22T06:17:17;95124.34;;;25.13;51.30
6343;BME280;3204;42.698;23.298;2022-07-22T06:19:42;95127.53;;;25.22;50.65
6343;BME280;3204;42.698;23.298;2022-07-22T06:22:08;95122.81;;;25.33;50.24
6343;BME280;3204;42.698;23.298;2022-07-22T06:24:34;95126.75;;;25.49;50.22
6343;BME280;3204;42.698;23.298;2022-07-22T06:27:00;95128.31;;;25.64;49.80
6343;BME280;3204;42.698;23.298;2022-07-22T06:29:25;95125.88;;;25.91;49.29
6343;BME280;3204;42.698;23.298;2022-07-22T06:31:51;95122.69;;;26.06;48.57
6343;BME280;3204;42.698;23.298;2022-07-22T06:34:17;95131.78;;;26.14;49.30
6343;BME280;3204;42.698;23.298;2022-07-22T06:36:42;95125.34;;;26.34;46.99
6343;BME280;3204;42.698;23.298;2022-07-22T06:39:07;95131.59;;;26.52;47.38
6343;BME280;3204;42.698;23.298;2022-07-22T06:41:33;95132.28;;;26.77;46.62
6343;BME280;3204;42.698;23.298;2022-07-22T06:43:59;95129.78;;;26.93;46.42
6343;BME280;3204;42.698;23.298;2022-07-22T06:46:24;95130.88;;;27.06;46.00
6343;BME280;3204;42.698;23.298;2022-07-22T06:48:50;95133.16;;;27.22;45.70
6343;BME280;3204;42.698;23.298;2022-07-22T06:51:15;95129.53;;;27.28;45.18
6343;BME280;3204;42.698;23.298;2022-07-22T06:53:41;95130.16;;;27.47;44.97
6343;BME280;3204;42.698;23.298;2022-07-22T06:56:07;95120.88;;;27.64;44.76
6343;BME280;3204;42.698;23.298;2022-07-22T06:58:32;95125.06;;;27.82;44.52
6343;BME280;3204;42.698;23.298;2022-07-22T07:00:58;95126.44;;;28.04;44.10
6343;BME280;3204;42.698;23.298;2022-07-22T07:03:24;95133.38;;;28.23;43.89
6343;BME280;3204;42.698;23.298;2022-07-22T07:05:51;95136.00;;;28.37;43.68
6343;BME280;3204;42.698;23.298;2022-07-22T07:08:17;95130.28;;;28.51;42.37
6343;BME280;3204;42.698;23.298;2022-07-22T07:10:43;95138.78;;;28.40;42.37
6343;BME280;3204;42.698;23.298;2022-07-22T07:13:08;95138.22;;;28.52;42.64
6343;BME280;3204;42.698;23.298;2022-07-22T07:15:34;95139.06;;;28.79;42.53
6343;BME280;3204;42.698;23.298;2022-07-22T07:18:00;95138.34;;;29.02;41.92
6343;BME280;3204;42.698;23.298;2022-07-22T07:20:26;95136.44;;;29.22;41.57
6343;BME280;3204;42.698;23.298;2022-07-22T07:22:51;95134.09;;;29.43;41.65
6343;BME280;3204;42.698;23.298;2022-07-22T07:25:17;95131.03;;;29.61;40.08
6343;BME280;3204;42.698;23.298;2022-07-22T07:27:42;95136.75;;;29.77;40.15
6343;BME280;3204;42.698;23.298;2022-07-22T07:30:09;95133.31;;;29.89;39.96
6343;BME280;3204;42.698;23.298;2022-07-22T07:32:35;95129.03;;;30.04;40.17
6343;BME280;3204;42.698;23.298;2022-07-22T07:35:03;95133.88;;;30.23;39.31
6343;BME280;3204;42.698;23.298;2022-07-22T07:37:28;95133.19;;;30.38;39.44
6343;BME280;3204;42.698;23.298;2022-07-22T07:39:55;95127.91;;;30.60;38.92
6343;BME280;3204;42.698;23.298;2022-07-22T07:42:21;95125.91;;;30.80;38.18
6343;BME280;3204;42.698;23.298;2022-07-22T07:44:47;95132.06;;;30.91;37.62
6343;BME280;3204;42.698;23.298;2022-07-22T07:47:12;95125.69;;;31.06;36.74
6343;BME280;3204;42.698;23.298;2022-07-22T07:49:43;95140.41;;;31.30;36.68
6343;BME280;3204;42.698;23.298;2022-07-22T07:52:09;95133.03;;;31.36;35.58
6343;BME280;3204;42.698;23.298;2022-07-22T07:54:35;95129.38;;;31.39;36.07
6343;BME280;3204;42.698;23.298;2022-07-22T07:57:01;95133.41;;;31.38;35.82
6343;BME280;3204;42.698;23.298;2022-07-22T07:59:27;95139.53;;;31.49;35.44
6343;BME280;3204;42.698;23.298;2022-07-22T08:01:52;95137.34;;;31.56;36.12
6343;BME280;3204;42.698;23.298;2022-07-22T08:04:17;95128.06;;;31.59;35.75
6343;BME280;3204;42.698;23.298;2022-07-22T08:06:44;95132.00;;;31.78;35.37
6343;BME280;3204;42.698;23.298;2022-07-22T08:09:11;95141.81;;;31.86;35.91
6343;BME280;3204;42.698;23.298;2022-07-22T08:11:36;95147.25;;;31.93;35.09
6343;BME280;3204;42.698;23.298;2022-07-22T08:14:02;95137.78;;;32.15;34.55
6343;BME280;3204;42.698;23.298;2022-07-22T08:16:29;95139.53;;;32.41;32.71
6343;BME280;3204;42.698;23.298;2022-07-22T08:18:55;95130.38;;;32.66;32.37
6343;BME280;3204;42.698;23.298;2022-07-22T08:21:20;95147.75;;;32.89;32.90
6343;BME280;3204;42.698;23.298;2022-07-22T08:23:46;95149.72;;;33.05;32.22
6343;BME280;3204;42.698;23.298;2022-07-22T08:26:12;95133.50;;;33.21;32.81
6343;BME280;3204;42.698;23.298;2022-07-22T08:28:37;95139.97;;;33.47;32.65
6343;BME280;3204;42.698;23.298;2022-07-22T08:31:03;95140.72;;;33.60;31.83
6343;BME280;3204;42.698;23.298;2022-07-22T08:33:29;95138.34;;;33.71;32.15
6343;BME280;3204;42.698;23.298;2022-07-22T08:35:54;95138.66;;;33.73;31.16
6343;BME280;3204;42.698;23.298;2022-07-22T08:38:20;95138.34;;;33.71;31.63
6343;BME280;3204;42.698;23.298;2022-07-22T08:40:46;95136.97;;;33.88;31.39
6343;BME280;3204;42.698;23.298;2022-07-22T08:43:12;95137.81;;;34.10;31.58
6343;BME280;3204;42.698;23.298;2022-07-22T08:45:39;95133.06;;;34.32;31.24
6343;BME280;3204;42.698;23.298;2022-07-22T08:48:05;95134.19;;;34.56;31.00
6343;BME280;3204;42.698;23.298;2022-07-22T08:50:31;95127.88;;;34.73;30.51
6343;BME280;3204;42.698;23.298;2022-07-22T08:52:56;95138.50;;;34.91;30.24
6343;BME280;3204;42.698;23.298;2022-07-22T08:55:23;95139.88;;;35.08;30.24
6343;BME280;3204;42.698;23.298;2022-07-22T08:57:50;95139.56;;;35.15;29.61
6343;BME280;3204;42.698;23.298;2022-07-22T09:00:19;95140.03;;;35.13;29.33
6343;BME280;3204;42.698;23.298;2022-07-22T09:02:45;95135.88;;;34.96;29.38
6343;BME280;3204;42.698;23.298;2022-07-22T09:05:12;95138.88;;;35.02;29.56
6343;BME280;3204;42.698;23.298;2022-07-22T09:07:41;95138.63;;;35.09;29.34
6343;BME280;3204;42.698;23.298;2022-07-22T09:10:11;95141.94;;;35.16;29.04
6343;BME280;3204;42.698;23.298;2022-07-22T09:12:56;95141.47;;;35.18;29.25
6343;BME280;3204;42.698;23.298;2022-07-22T09:15:33;95143.31;;;35.33;28.96
6343;BME280;3204;42.698;23.298;2022-07-22T09:18:01;95148.72;;;34.76;29.17
6343;BME280;3204;42.698;23.298;2022-07-22T09:20:27;95143.25;;;34.38;28.84
6343;BME280;3204;42.698;23.298;2022-07-22T09:22:54;95139.22;;;34.39;28.80
6343;BME280;3204;42.698;23.298;2022-07-22T09:25:28;95142.94;;;34.58;29.22
6343;BME280;3204;42.698;23.298;2022-07-22T09:28:19;95127.88;;;34.95;28.98
6343;BME280;3204;42.698;23.298;2022-07-22T09:30:50;95133.44;;;35.38;28.65
6343;BME280;3204;42.698;23.298;2022-07-22T09:33:16;95131.91;;;35.46;28.28
6343;BME280;3204;42.698;23.298;2022-07-22T09:35:43;95130.38;;;35.63;28.99
6343;BME280;3204;42.698;23.298;2022-07-22T09:38:11;95132.91;;;35.61;28.51
6343;BME280;3204;42.698;23.298;2022-07-22T09:40:38;95133.75;;;35.79;28.39
6343;BME280;3204;42.698;23.298;2022-07-22T09:43:10;95141.63;;;35.93;28.21
6343;BME280;3204;42.698;23.298;2022-07-22T09:45:47;95130.38;;;36.12;27.46
6343;BME280;3204;42.698;23.298;2022-07-22T09:48:13;95134.34;;;36.32;26.45
6343;BME280;3204;42.698;23.298;2022-07-22T09:50:39;95131.53;;;36.41;27.06
6343;BME280;3204;42.698;23.298;2022-07-22T09:53:05;95129.31;;;36.36;27.20
6343;BME280;3204;42.698;23.298;2022-07-22T09:55:31;95129.81;;;36.53;26.37
6343;BME280;3204;42.698;23.298;2022-07-22T09:57:59;95127.13;;;36.67;25.84
6343;BME280;3204;42.698;23.298;2022-07-22T10:00:26;95118.63;;;36.85;26.72
6343;BME280;3204;42.698;23.298;2022-07-22T10:02:57;95119.84;;;37.11;25.87
6343;BME280;3204;42.698;23.298;2022-07-22T10:05:25;95124.66;;;37.29;26.22
6343;BME280;3204;42.698;23.298;2022-07-22T10:07:52;95118.75;;;37.50;26.71
6343;BME280;3204;42.698;23.298;2022-07-22T10:10:26;95116.81;;;37.65;25.95
6343;BME280;3204;42.698;23.298;2022-07-22T10:12:53;95121.00;;;37.79;25.38
6343;BME280;3204;42.698;23.298;2022-07-22T10:15:20;95116.13;;;37.79;25.00
6343;BME280;3204;42.698;23.298;2022-07-22T10:17:48;95122.06;;;37.49;25.33
6343;BME280;3204;42.698;23.298;2022-07-22T10:20:20;95112.31;;;36.99;26.16
6343;BME280;3204;42.698;23.298;2022-07-22T10:22:48;95111.03;;;37.00;25.58
6343;BME280;3204;42.698;23.298;2022-07-22T10:25:15;95114.16;;;37.11;25.78
6343;BME280;3204;42.698;23.298;2022-07-22T10:27:56;95105.50;;;37.24;25.51
6343;BME280;3204;42.698;23.298;2022-07-22T10:30:28;95108.78;;;37.31;24.55
6343;BME280;3204;42.698;23.298;2022-07-22T10:33:12;95107.44;;;37.50;25.00
6343;BME280;3204;42.698;23.298;2022-07-22T10:35:54;95095.13;;;37.62;24.23
6343;BME280;3204;42.698;23.298;2022-07-22T10:38:21;95109.22;;;37.71;25.03
6343;BME280;3204;42.698;23.298;2022-07-22T10:40:55;95109.72;;;37.70;24.53
6343;BME280;3204;42.698;23.298;2022-07-22T10:43:28;95100.38;;;37.78;24.15
6343;BME280;3204;42.698;23.298;2022-07-22T10:45:56;95108.53;;;37.85;24.75
6343;BME280;3204;42.698;23.298;2022-07-22T10:51:18;95098.66;;;37.81;25.11
6343;BME280;3204;42.698;23.298;2022-07-22T10:53:46;95103.28;;;37.69;24.68
6343;BME280;3204;42.698;23.298;2022-07-22T10:56:12;95091.09;;;37.78;25.48
6343;BME280;3204;42.698;23.298;2022-07-22T10:58:40;95091.19;;;37.92;25.41
6343;BME280;3204;42.698;23.298;2022-07-22T11:01:09;95088.91;;;37.96;24.83
6343;BME280;3204;42.698;23.298;2022-07-22T11:03:37;95092.81;;;38.08;25.45
6343;BME280;3204;42.698;23.298;2022-07-22T11:06:18;95094.22;;;38.12;24.46
6343;BME280;3204;42.698;23.298;2022-07-22T11:08:46;95094.75;;;38.25;24.49
6343;BME280;3204;42.698;23.298;2022-07-22T11:11:12;95090.91;;;38.28;24.31
6343;BME280;3204;42.698;23.298;2022-07-22T11:13:39;95089.28;;;37.89;24.79
6343;BME280;3204;42.698;23.298;2022-07-22T11:16:21;95089.34;;;37.48;24.91
6343;BME280;3204;42.698;23.298;2022-07-22T11:18:50;95082.63;;;37.36;24.71
6343;BME280;3204;42.698;23.298;2022-07-22T11:21:18;95087.03;;;37.37;24.64
6343;BME280;3204;42.698;23.298;2022-07-22T11:23:48;95090.56;;;37.23;24.57
6343;BME280;3204;42.698;23.298;2022-07-22T11:26:15;95094.31;;;37.20;25.17
6343;BME280;3204;42.698;23.298;2022-07-22T11:28:43;95088.75;;;36.93;24.90
6343;BME280;3204;42.698;23.298;2022-07-22T11:31:10;95082.81;;;36.64;24.99
6343;BME280;3204;42.698;23.298;2022-07-22T11:33:36;95075.75;;;36.42;25.93
6343;BME280;3204;42.698;23.298;2022-07-22T11:36:06;95072.91;;;36.51;25.58
6343;BME280;3204;42.698;23.298;2022-07-22T11:38:48;95080.19;;;36.34;25.70
6343;BME280;3204;42.698;23.298;2022-07-22T11:41:16;95073.38;;;36.40;25.81
6343;BME280;3204;42.698;23.298;2022-07-22T11:43:47;95073.69;;;36.60;25.51
6343;BME280;3204;42.698;23.298;2022-07-22T11:46:14;95073.53;;;36.73;25.26
6343;BME280;3204;42.698;23.298;2022-07-22T11:48:41;95068.91;;;37.02;25.09
6343;BME280;3204;42.698;23.298;2022-07-22T11:51:09;95074.94;;;37.28;25.34
6343;BME280;3204;42.698;23.298;2022-07-22T11:53:36;95069.94;;;37.23;25.67
6343;BME280;3204;42.698;23.298;2022-07-22T11:56:04;95071.16;;;36.89;25.12
6343;BME280;3204;42.698;23.298;2022-07-22T12:01:04;95063.66;;;36.50;25.47
6343;BME280;3204;42.698;23.298;2022-07-22T12:03:30;95070.88;;;36.51;25.66
6343;BME280;3204;42.698;23.298;2022-07-22T12:05:57;95066.34;;;36.36;25.95
6343;BME280;3204;42.698;23.298;2022-07-22T12:08:22;95060.81;;;36.05;26.49
6343;BME280;3204;42.698;23.298;2022-07-22T12:10:49;95060.53;;;36.30;26.13
6343;BME280;3204;42.698;23.298;2022-07-22T12:13:14;95061.28;;;36.58;25.71
6343;BME280;3204;42.698;23.298;2022-07-22T12:15:40;95060.00;;;36.86;25.45
6343;BME280;3204;42.698;23.298;2022-07-22T12:18:22;95066.06;;;37.11;25.09
6343;BME280;3204;42.698;23.298;2022-07-22T12:20:49;95060.94;;;36.83;24.67
6343;BME280;3204;42.698;23.298;2022-07-22T12:23:15;95058.75;;;36.60;25.63
6343;BME280;3204;42.698;23.298;2022-07-22T12:28:17;95047.66;;;36.20;26.17
6343;BME280;3204;42.698;23.298;2022-07-22T12:30:42;95052.66;;;35.89;26.58
6343;BME280;3204;42.698;23.298;2022-07-22T12:33:18;95046.22;;;35.79;26.79
6343;BME280;3204;42.698;23.298;2022-07-22T12:35:44;95054.53;;;35.92;26.84
6343;BME280;3204;42.698;23.298;2022-07-22T12:38:22;95056.28;;;36.08;27.09
6343;BME280;3204;42.698;23.298;2022-07-22T12:40:48;95053.13;;;36.06;27.34
6343;BME280;3204;42.698;23.298;2022-07-22T12:43:14;95043.06;;;36.13;27.13
6343;BME280;3204;42.698;23.298;2022-07-22T12:45:40;95045.28;;;36.37;26.49
6343;BME280;3204;42.698;23.298;2022-07-22T12:48:07;95046.06;;;36.55;26.55
6343;BME280;3204;42.698;23.298;2022-07-22T12:50:38;95041.31;;;36.61;26.29
6343;BME280;3204;42.698;23.298;2022-07-22T12:53:10;95038.50;;;36.61;26.22
6343;BME280;3204;42.698;23.298;2022-07-22T12:55:46;95038.81;;;36.72;26.03
6343;BME280;3204;42.698;23.298;2022-07-22T12:58:13;95039.91;;;36.66;25.17
6343;BME280;3204;42.698;23.298;2022-07-22T13:00:53;95046.38;;;36.39;26.01
6343;BME280;3204;42.698;23.298;2022-07-22T13:03:20;95036.47;;;35.98;25.62
6343;BME280;3204;42.698;23.298;2022-07-22T13:05:48;95041.81;;;35.88;26.03
6343;BME280;3204;42.698;23.298;2022-07-22T13:08:14;95033.81;;;35.86;26.26
6343;BME280;3204;42.698;23.298;2022-07-22T13:10:39;95047.00;;;35.89;25.90
6343;BME280;3204;42.698;23.298;2022-07-22T13:13:05;95044.44;;;35.55;26.01
6343;BME280;3204;42.698;23.298;2022-07-22T13:15:31;95047.38;;;35.51;25.74
6343;BME280;3204;42.698;23.298;2022-07-22T13:17:57;95043.44;;;35.31;26.72